Lucy, New Mexico
Current Conditions -  °F | °C
As of 5:15 AM on Friday 24 Oct 2014 (Local Time) from K0E0 Reporting Station
Clear Clear  
Wind Chill: 34°   Ceiling: Unl
Heat Index: 34°   Visibility: 10mi
Dew Point: 32°   Wind: 3mph
Humidity: 91%   Direction: 170°S
Pressure: 30.32"   Gusts: NA
Location:  34.4464°N, 106.01°W
Report Text: K0E0 241115Z AUTO 17003KT 10SM CLR 01/00 A3032 RMK AO2 T00130000
Loading
Personal Weather Stations






























Interactive Weather Map
Tropical Storm Tracking
New forecast layout! Learn more

10-Day Weather Forecast

Advertisements
Track Severe Weather on mobile